• Join FlightAware (Why Join?)
  • Login
  • US Flag GB Flag 
08:26 EST


 

Airport Tracker/Info


-or-


 

Live Flight TrackerFlight Track Log ✈ AWE1693 ✈ 27-Apr-2013 ✈ KCLT - TKPK / SKB

Flight Track Log - Related Links

Times and Time Zones

All times are in EDT time to prevent confusion due to time zone crossing. See the AWE1693 flight status page for this flight to view local times or setup timezone preferences in your user account.

Time Position Orientation Groundspeed Altitude Reporting Facility
EDT Latitude Longitude Course Direction KTS MPH feet Rate Location/Type
12:04 35.1911 -80.9508 175° South 166 191 1,600  Level Atlanta Center
12:05 35.1039 -80.9669 189° South 241 277 4,400 1,740 Climbing Atlanta Center
12:06 34.9606 -80.6199 175° South  Level Estimated
12:06 35.0486 -81.0044 209° Southwest 258 297 5,900  Level Atlanta Center
12:07 34.8760 -80.5106 180° South  Level Estimated
12:07 34.9839 -81.0017 178° South 285 328 8,300  Level Atlanta Center
12:08 34.7913 -80.4015 180° South  Level Estimated
12:08 34.9058 -80.9742 164° South 290 334 10,400  Level Atlanta Center
12:09 34.7065 -80.2927 175° South  Level Estimated
12:10 34.6864 -80.9006 165° South 351 404 13,900  Level Jacksonville Center
12:11 34.5800 -80.8903 175° South 384 442 15,600 1,680 Climbing Jacksonville Center
12:12 34.4689 -80.8603 167° South 401 461 17,300 1,500 Climbing Jacksonville Center
12:13 34.3636 -80.8047 156° South 410 472 18,600 1,320 Climbing Jacksonville Center
12:14 34.2458 -80.7397 155° Southeast 416 479 20,000 1,380 Climbing Jacksonville Center
12:15 34.1319 -80.6797 156° South 430 495 21,400 1,380 Climbing Jacksonville Center
12:16 34.0164 -80.6228 158° South 442 509 22,800 1,260 Climbing Jacksonville Center
12:17 33.9006 -80.5631 157° South 447 514 24,000 1,080 Climbing Jacksonville Center
12:18 33.7803 -80.5014 157° South 460 529 25,000 900 Climbing Jacksonville Center
12:19 33.6561 -80.4397 158° South 465 535 25,900 1,260 Climbing Jacksonville Center
12:20 33.5358 -80.3783 157° South 471 542 27,600 1,560 Climbing Jacksonville Center
12:21 33.4136 -80.3172 157° South 477 549 29,100 1,380 Climbing Jacksonville Center
12:22 33.2975 -80.2583 157° South 466 536 30,400 1,080 Climbing Jacksonville Center
12:23 33.1794 -80.1997 157° South 461 531 31,300 900 Climbing Jacksonville Center
12:24 33.0633 -80.1389 156° South 461 531 32,200 900 Climbing Jacksonville Center
12:25 32.9672 -80.0328 137° Southeast 472 543 33,200 840 Climbing Jacksonville Center
12:26 32.9117 -79.8911 115° Southeast 450 518 33,900 600 Climbing Jacksonville Center
12:27 32.8686 -79.7492 110° East 450 518 34,500 420 Climbing Jacksonville Center
12:28 32.8208 -79.6000 111° Southeast 462 532 34,800 240 Climbing Jacksonville Center
12:29 32.7731 -79.4486 111° Southeast 476 548 35,000 60 Climbing Jacksonville Center
12:30 32.7253 -79.3022 111° Southeast 481 554 35,000  Level Jacksonville Center
12:31 32.6769 -79.1511 111° Southeast 486 559 35,000  Level Jacksonville Center
12:32 32.6286 -79.0028 111° Southeast 486 559 35,000  Level Jacksonville Center
12:33 32.5800 -78.8519 111° Southeast 486 559 35,000  Level Jacksonville Center
12:34 32.5314 -78.7014 111° Southeast 486 559 35,000  Level Jacksonville Center
12:35 32.4825 -78.5511 111° Southeast 486 559 35,000  Level Jacksonville Center
12:36 32.4378 -78.4103 111° Southeast 496 571 35,000  Level Jacksonville Center
12:37 32.3908 -78.2628 111° Southeast 496 571 35,000  Level Jacksonville Center
12:38 32.3414 -78.1103 111° Southeast 496 571 35,000  Level Jacksonville Center
12:39 32.2936 -77.9556 110° East 491 565 35,000  Level Jacksonville Center
12:40 32.2319 -77.8239 119° Southeast 485 558 35,000  Level Jacksonville Center
12:41 32.1317 -77.7167 138° Southeast 475 547 35,000  Level Jacksonville Center
12:42 32.0258 -77.6269 144° Southeast 467 537 35,000 -60 Level Jacksonville Center
12:43 31.9211 -77.5231 140° Southeast 472 543 34,900 -60 Descending Jacksonville Center
12:44 31.8192 -77.4311 143° Southeast 478 550 34,900  Level Jacksonville Center
12:45 31.7125 -77.3300 141° Southeast 484 557 35,000  Climbing Jacksonville Center
12:46 31.6103 -77.2336 141° Southeast 484 557 35,000 -60 Level Jacksonville Center
12:47 31.5056 -77.1378 142° Southeast 479 551 34,900  Descending Jacksonville Center
12:48 31.4031 -77.0369 140° Southeast 479 551 35,000  Climbing Jacksonville Center
12:49 31.3003 -76.9414 142° Southeast 479 551 35,000  Level Jacksonville Center
12:50 31.3500 -77.0000 140° Southeast 478 550 35,000  Level New York Oceanic (ODAPS)
12:57 30.5295 -76.2134 141° Southeast 478 550 35,000  Level FlightAware Transoceanic
12:58 30.4266 -76.1160 141° Southeast 478 550 35,000  Level FlightAware Transoceanic
12:59 30.3237 -76.0188 141° Southeast 478 550 35,000  Level FlightAware Transoceanic
13:00 30.2207 -75.9219 141° Southeast 478 550 35,000  Level FlightAware Transoceanic
13:01 30.1176 -75.8251 141° Southeast 478 550 35,000  Level FlightAware Transoceanic
13:02 30.0144 -75.7285 141° Southeast 478 550 35,000  Level FlightAware Transoceanic
13:03 29.9111 -75.6322 141° Southeast 478 550 35,000  Level FlightAware Transoceanic
13:04 29.8078 -75.5360 141° Southeast 478 550 35,000  Level FlightAware Transoceanic
13:05 29.7044 -75.4400 141° Southeast 478 550 35,000  Level FlightAware Transoceanic
13:06 29.6010 -75.3442 141° Southeast 478 550 35,000  Level FlightAware Transoceanic
13:07 29.4975 -75.2487 141° Southeast 478 550 35,000  Level FlightAware Transoceanic
13:08 29.3939 -75.1533 141° Southeast 478 550 35,000  Level FlightAware Transoceanic
13:09 29.2902 -75.0581 141° Southeast 478 550 35,000  Level FlightAware Transoceanic
13:10 29.1865 -74.9631 141° Southeast 478 550 35,000  Level FlightAware Transoceanic
13:11 29.0827 -74.8683 141° Southeast 478 550 35,000  Level FlightAware Transoceanic
13:12 28.9788 -74.7737 141° Southeast 478 550 35,000  Level FlightAware Transoceanic
13:13 28.8749 -74.6793 142° Southeast 478 550 35,000  Level FlightAware Transoceanic
13:14 28.7709 -74.5850 142° Southeast 478 550 35,000  Level FlightAware Transoceanic
13:15 28.6669 -74.4910 142° Southeast 478 550 35,000  Level FlightAware Transoceanic
13:16 28.5627 -74.3971 142° Southeast 478 550 35,000  Level FlightAware Transoceanic
13:17 28.4586 -74.3035 142° Southeast 478 550 35,000  Level FlightAware Transoceanic
13:18 28.3543 -74.2100 142° Southeast 478 550 35,000  Level FlightAware Transoceanic
13:19 28.2500 -74.1167 149° Southeast 478 550 35,000  Level FlightAware Transoceanic
13:20 28.1385 -74.0416 149° Southeast 478 550 35,000  Level FlightAware Transoceanic
13:20 28.2500 -74.1167 149° Southeast 466 536 35,000  Level New York Oceanic (ODAPS)
13:21 28.0269 -73.9667 149° Southeast 478 550 35,000  Level FlightAware Transoceanic
13:22 27.9153 -73.8920 149° Southeast 478 550 35,000  Level FlightAware Transoceanic
13:23 27.8036 -73.8174 149° Southeast 478 550 35,000  Level FlightAware Transoceanic
13:24 27.6919 -73.7430 149° Southeast 478 550 35,000  Level FlightAware Transoceanic
13:25 27.5802 -73.6687 150° Southeast 478 550 35,000  Level FlightAware Transoceanic
13:26 27.4684 -73.5945 150° Southeast 478 550 35,000  Level FlightAware Transoceanic
13:27 27.4684 -73.5945 150° Southeast 466 536 35,000  Level FlightAware Transoceanic
13:28 27.3566 -73.5206 150° Southeast 466 536 35,000  Level FlightAware Transoceanic
13:29 27.2448 -73.4467 150° Southeast 466 536 35,000  Level FlightAware Transoceanic
13:30 27.1329 -73.3730 150° Southeast 466 536 35,000  Level FlightAware Transoceanic
13:31 27.0210 -73.2995 150° Southeast 466 536 35,000  Level FlightAware Transoceanic
13:32 26.9090 -73.2261 150° Southeast 466 536 35,000  Level FlightAware Transoceanic
13:33 26.7970 -73.1529 150° Southeast 466 536 35,000  Level FlightAware Transoceanic
13:34 26.6849 -73.0798 150° Southeast 466 536 35,000  Level FlightAware Transoceanic
13:35 26.5729 -73.0068 150° Southeast 466 536 35,000  Level FlightAware Transoceanic
13:36 26.4608 -72.9340 150° Southeast 466 536 35,000  Level FlightAware Transoceanic
13:37 26.3486 -72.8613 150° Southeast 466 536 35,000  Level FlightAware Transoceanic
13:38 26.2364 -72.7888 150° Southeast 466 536 35,000  Level FlightAware Transoceanic
13:39 26.1242 -72.7164 150° Southeast 466 536 35,000  Level FlightAware Transoceanic
13:40 26.0119 -72.6442 150° Southeast 466 536 35,000  Level FlightAware Transoceanic
13:41 25.8996 -72.5721 150° Southeast 466 536 35,000  Level FlightAware Transoceanic
13:42 25.7873 -72.5001 150° Southeast 466 536 35,000  Level FlightAware Transoceanic
13:42 25.7800 -72.5369 150° Southeast 441 507 35,000  Level Miami Center
13:43 25.6749 -72.4282 150° Southeast 466 536 35,000  Level FlightAware Transoceanic
13:43 25.6608 -72.4628 151° Southeast 461 531 35,000  Level Miami Center
13:44 25.5625 -72.3565 150° Southeast 466 536 35,000  Level FlightAware Transoceanic
13:44 25.5522 -72.3908 149° Southeast 470 541 35,000  Level Miami Center
13:45 25.4501 -72.2850 150° Southeast 466 536 35,000  Level FlightAware Transoceanic
13:45 25.4392 -72.3192 150° Southeast 470 541 35,000  Level Miami Center
13:46 25.3376 -72.2135 150° Southeast 466 536 35,000  Level FlightAware Transoceanic
13:46 25.3242 -72.2456 150° Southeast 477 549 35,000  Level Miami Center
13:47 25.2251 -72.1422 150° Southeast 466 536 35,000  Level FlightAware Transoceanic
13:47 25.2156 -72.1761 150° Southeast 471 542 35,000  Level Miami Center
13:48 25.1025 -72.1047 150° Southeast 466 536 35,000  Level Miami Center
13:49 24.9900 -72.0450 154° Southeast 466 536 35,000  Level Miami Center
13:50 24.8714 -71.9947 159° South 510 587 35,000  Level Miami Center
13:51 24.7592 -71.8894 140° Southeast 468 539 35,000  Level Miami Center
13:52 24.6617 -71.7883 137° Southeast 468 539 35,000  Level Miami Center
13:53 24.5664 -71.6847 135° Southeast 468 539 35,000  Level Miami Center
13:54 24.4650 -71.5911 140° Southeast 476 548 35,000  Level Miami Center
13:55 24.3656 -71.5017 141° Southeast 476 548 35,000  Level Miami Center
13:56 24.2700 -71.3989 136° Southeast 476 548 35,000  Level Miami Center
13:57 24.1683 -71.2986 138° Southeast 476 548 35,000  Level Miami Center
13:58 24.0703 -71.1961 136° Southeast 476 548 35,000  Level Miami Center
13:59 23.9689 -71.1053 141° Southeast 476 548 35,000  Level Miami Center
14:00 23.8689 -71.0056 138° Southeast 476 548 35,000  Level Miami Center
14:01 23.7711 -70.9081 138° Southeast 476 548 35,000  Level Miami Center
14:02 23.6733 -70.8106 138° Southeast 476 548 35,000  Level Miami Center
14:03 23.5758 -70.7247 141° Southeast 471 542 35,000  Level Miami Center
14:04 23.4756 -70.6231 137° Southeast 471 542 35,000  Level Miami Center
14:05 23.3736 -70.5264 139° Southeast 478 550 35,000  Level Miami Center
14:06 23.2756 -70.4275 137° Southeast 478 550 35,000  Level Miami Center
14:07 23.1883 -70.3439 139° Southeast 473 544 35,000  Level Miami Center
14:08 23.0883 -70.2497 139° Southeast 479 551 35,000  Level Miami Center
14:09 22.9881 -70.1533 138° Southeast 477 549 35,000  Level Miami Center
14:10 22.8900 -70.0572 138° Southeast 477 549 35,000  Level Miami Center
14:11 22.7919 -69.9656 139° Southeast 469 540 35,000  Level Miami Center
14:12 22.6936 -69.8697 138° Southeast 469 540 35,000  Level Miami Center
14:13 22.5956 -69.7783 139° Southeast 474 545 35,000  Level Miami Center
14:14 22.4972 -69.6850 139° Southeast 474 545 35,000  Level Miami Center
14:15 22.4033 -69.5961 139° Southeast 468 539 35,000  Level Miami Center
14:16 22.3031 -69.5031 139° Southeast 468 539 35,000  Level Miami Center
14:17 22.2025 -69.4100 139° Southeast 474 545 35,000  Level Miami Center
14:18 22.1061 -69.3172 138° Southeast 474 545 35,000  Level Miami Center
14:19 22.0036 -69.2247 140° Southeast 474 545 35,000  Level Miami Center
14:20 21.9053 -69.1319 139° Southeast 474 545 35,000  Level Miami Center
14:21 21.8089 -69.0417 139° Southeast 474 545 35,000  Level Miami Center
14:22 21.7061 -68.9475 140° Southeast 474 545 35,000  Level Miami Center
14:23 21.6097 -68.8553 138° Southeast 474 545 35,000  Level Miami Center
14:24 21.5028 -68.7614 141° Southeast 482 555 35,000  Level Miami Center
14:25 21.4081 -68.6669 137° Southeast 477 549 35,000  Level Miami Center
14:26 21.3053 -68.5733 140° Southeast 477 549 35,000  Level Miami Center
14:27 21.1961 -68.4800 141° Southeast 485 558 35,000  Level Miami Center
14:28 21.0992 -68.3861 138° Southeast 485 558 35,000  Level Miami Center
14:29 20.9942 -68.2908 140° Southeast 485 558 35,000  Level Miami Center
14:30 20.8908 -68.1953 139° Southeast 485 558 35,000  Level Miami Center
14:31 20.7858 -68.1025 140° Southeast 485 558 35,000  Level Miami Center
14:32 20.6886 -68.0047 137° Southeast 485 558 35,000  Level Miami Center
14:33 20.6047 -67.8864 127° Southeast 491 565 35,000  Level Miami Center
14:34 20.5189 -67.7706 128° Southeast 496 571 35,000  Level Miami Center
14:35 20.4372 -67.6547 127° Southeast 496 571 35,000  Level Miami Center
14:36 20.3500 -67.5167 124° Southeast 490 564 35,000  Level San Juan Center
14:37 20.2667 -67.4000 127° Southeast 490 564 35,000  Level San Juan Center
14:38 20.1833 -67.2833 127° Southeast 490 564 35,000  Level San Juan Center
14:39 20.1000 -67.1667 127° Southeast 490 564 35,000  Level San Juan Center
14:40 20.0167 -67.0500 127° Southeast 500 575 35,000  Level San Juan Center
14:41 19.9333 -66.9333 127° Southeast 490 564 35,000  Level San Juan Center
14:42 19.8500 -66.8167 127° Southeast 490 564 35,000  Level San Juan Center
14:43 19.7667 -66.7000 127° Southeast 500 575 35,000  Level San Juan Center
14:44 19.6833 -66.5833 127° Southeast 490 564 35,000  Level San Juan Center
14:45 19.6000 -66.4667 127° Southeast 500 575 35,000  Level San Juan Center
14:46 19.5167 -66.3500 127° Southeast 490 564 35,000  Level San Juan Center
14:47 19.4333 -66.2333 127° Southeast 490 564 35,000  Level San Juan Center
14:48 19.3500 -66.1333 131° Southeast 490 564 35,000  Level San Juan Center
14:49 19.2500 -66.0167 132° Southeast 500 575 35,000  Level San Juan Center
14:50 19.1667 -65.9000 127° Southeast 490 564 35,000  Level San Juan Center
14:51 19.0833 -65.7667 123° Southeast 500 575 35,000  Level San Juan Center
14:52 19.0000 -65.6667 131° Southeast 500 575 35,000  Level San Juan Center
14:53 18.9167 -65.5500 127° Southeast 500 575 35,000  Level San Juan Center
14:54 18.8333 -65.4333 127° Southeast 490 564 35,000  Level San Juan Center
14:55 18.7500 -65.3167 127° Southeast 490 564 35,000  Level San Juan Center
14:56 18.6667 -65.2000 127° Southeast 490 564 35,000  Level San Juan Center
14:57 18.5833 -65.1000 131° Southeast 490 564 35,000  Level San Juan Center
14:58 18.5000 -64.9833 127° Southeast 490 564 35,000  Level San Juan Center
14:59 18.4167 -64.8667 127° Southeast 510 587 35,000  Level San Juan Center
15:00 18.3167 -64.7500 132° Southeast 490 564 35,000 -180 Level San Juan Center
15:01 18.2333 -64.6333 127° Southeast 490 564 34,700 -1,020 Descending San Juan Center
15:02 18.1500 -64.5333 131° Southeast 490 564 33,000 -900 Descending San Juan Center
15:03 18.0667 -64.4000 123° Southeast 500 575 33,000  Level San Juan Center
15:04 17.9833 -64.3000 131° Southeast 490 564 33,000 -480 Level San Juan Center
15:05 17.8833 -64.1833 132° Southeast 500 575 32,100 -1,860 Descending San Juan Center
15:06 17.8000 -64.0667 127° Southeast 490 564 29,300 -2,400 Descending San Juan Center
15:07 17.7167 -63.9667 131° Southeast 470 541 27,400 -2,880 Descending San Juan Center
15:08 17.6167 -63.9000 148° Southeast 450 518 23,500 -3,480 Descending San Juan Center
15:09 17.5000 -63.8167 146° Southeast 460 529 20,500 -2,820 Descending San Juan Center
15:10 17.4000 -63.7333 142° Southeast 440 506 17,900 -2,520 Descending San Juan Center
15:11 17.3333 -63.6500 130° Southeast 410 472 15,500 -2,280 Descending San Juan Center
15:12 17.3333 -63.5333 90° East 430 495 13,400 -2,460 Descending San Juan Center
15:13 17.3333 -63.4000 90° East 390 449 10,600 -3,240 Descending San Juan Center
15:14 17.3333 -63.3000 90° East 360 414 7,000 -2,340 Descending San Juan Center
15:15 17.3333 -63.2000 90° East 320 368 6,000 -540 Descending San Juan Center
15:16 17.3333 -63.1333 90° East 280 322 6,000  Level San Juan Center
15:18 17.3212 -62.9058 102° East  Level FlightAware Approximate
15:25 17.3112 -62.7187 North  Level Estimated
15:26 17.3112 -62.7187 North  Level Estimated